AAL2687 KMIA-TNCA
Flight info
| Callsign | AAL2687 |
|---|---|
| Flight time | 2h 30m |
| Altitude | 35000 |
| Route | KLADA2 JAGOR Y398 JOSES UA315 PIGBI UL468 KISAS KISAS2A |
| Aircraft | B738/M-VGDW/C |
Departure
| Time | 2026-04-26 22:19 |
|---|---|
| Airport | Miami International Airport (KMIA) |
Arrival
| Time | 2026-04-27 00:49 |
|---|---|
| Airport | Queen Beatrix International Airport (TNCA) |
| Time | Latitude | Longitude | Altitude | Speed | Heading |
|---|---|---|---|---|---|
| 2026-04-26 21:57 | 25.79776 | -80.27891 | 12 ft | 0 kts | 177° |
| 2026-04-26 22:07 | 25.79779 | -80.27892 | 12 ft | 3 kts | 177° |
| 2026-04-26 22:07 | 25.79800 | -80.27894 | 12 ft | 2 kts | 175° |
| 2026-04-26 22:08 | 25.79829 | -80.27898 | 12 ft | 3 kts | 172° |
| 2026-04-26 22:08 | 25.79838 | -80.27898 | 12 ft | 0 kts | 171° |
| 2026-04-26 22:09 | 25.79840 | -80.27899 | 12 ft | 2 kts | 171° |
| 2026-04-26 22:09 | 25.79867 | -80.27904 | 12 ft | 3 kts | 168° |
| 2026-04-26 22:09 | 25.79890 | -80.27911 | 12 ft | 3 kts | 166° |
| 2026-04-26 22:09 | 25.79912 | -80.27917 | 12 ft | 3 kts | 163° |
| 2026-04-26 22:10 | 25.79934 | -80.27925 | 12 ft | 3 kts | 161° |
| 2026-04-26 22:10 | 25.79955 | -80.27934 | 12 ft | 3 kts | 159° |
| 2026-04-26 22:10 | 25.79962 | -80.27937 | 12 ft | 0 kts | 157° |
| 2026-04-26 22:13 | 25.79959 | -80.27937 | 12 ft | 0 kts | 198° |
| 2026-04-26 22:13 | 25.79960 | -80.27953 | 12 ft | 6 kts | 309° |
| 2026-04-26 22:13 | 25.79969 | -80.28009 | 12 ft | 7 kts | 263° |
| 2026-04-26 22:13 | 25.79963 | -80.28070 | 12 ft | 8 kts | 266° |
| 2026-04-26 22:14 | 25.79983 | -80.28131 | 12 ft | 8 kts | 317° |
| 2026-04-26 22:14 | 25.80031 | -80.28178 | 12 ft | 9 kts | 297° |
| 2026-04-26 22:14 | 25.80037 | -80.28253 | 12 ft | 10 kts | 267° |
| 2026-04-26 22:14 | 25.80033 | -80.28341 | 12 ft | 12 kts | 266° |
| 2026-04-26 22:15 | 25.80028 | -80.28440 | 12 ft | 13 kts | 266° |
| 2026-04-26 22:15 | 25.80020 | -80.28552 | 12 ft | 15 kts | 267° |
| 2026-04-26 22:15 | 25.80018 | -80.28672 | 12 ft | 16 kts | 268° |
| 2026-04-26 22:15 | 25.80013 | -80.28805 | 12 ft | 17 kts | 268° |
| 2026-04-26 22:16 | 25.80008 | -80.28948 | 12 ft | 19 kts | 267° |
| 2026-04-26 22:16 | 25.80001 | -80.29103 | 12 ft | 20 kts | 268° |
| 2026-04-26 22:16 | 25.79997 | -80.29269 | 12 ft | 22 kts | 269° |
| 2026-04-26 22:16 | 25.79988 | -80.29441 | 12 ft | 23 kts | 266° |
| 2026-04-26 22:17 | 25.79978 | -80.29626 | 12 ft | 24 kts | 268° |
| 2026-04-26 22:17 | 25.79973 | -80.29813 | 12 ft | 23 kts | 268° |
| 2026-04-26 22:17 | 25.79969 | -80.29928 | 12 ft | 8 kts | 274° |
| 2026-04-26 22:17 | 25.79981 | -80.29979 | 12 ft | 3 kts | 285° |
| 2026-04-26 22:18 | 25.79987 | -80.30002 | 12 ft | 2 kts | 283° |
| 2026-04-26 22:18 | 25.79992 | -80.30029 | 12 ft | 5 kts | 281° |
| 2026-04-26 22:18 | 25.80011 | -80.30102 | 12 ft | 11 kts | 314° |
| 2026-04-26 22:18 | 25.80070 | -80.30095 | 12 ft | 8 kts | 58° |
| 2026-04-26 22:19 | 25.80083 | -80.29947 | 12 ft | 45 kts | 86° |
| 2026-04-26 22:19 | 25.80115 | -80.29287 | 12 ft | 124 kts | 88° |
| 2026-04-26 22:19 | 25.80153 | -80.28062 | 100 ft | 179 kts | 88° |
| 2026-04-26 22:19 | 25.80185 | -80.26730 | 954 ft | 176 kts | 90° |
| 2026-04-26 22:20 | 25.79979 | -80.25363 | 1537 ft | 190 kts | 109° |
| 2026-04-26 22:20 | 25.79647 | -80.24454 | 1848 ft | 201 kts | 114° |
| 2026-04-26 22:20 | 25.78789 | -80.22496 | 2488 ft | 224 kts | 117° |
| 2026-04-26 22:20 | 25.78060 | -80.20899 | 3035 ft | 240 kts | 117° |
| 2026-04-26 22:21 | 25.77290 | -80.19221 | 3735 ft | 253 kts | 117° |
| 2026-04-26 22:21 | 25.76465 | -80.17439 | 4429 ft | 265 kts | 118° |
| 2026-04-26 22:21 | 25.75581 | -80.15623 | 5344 ft | 269 kts | 118° |
| 2026-04-26 22:21 | 25.74686 | -80.13808 | 6227 ft | 273 kts | 118° |
| 2026-04-26 22:22 | 25.73776 | -80.11968 | 7093 ft | 276 kts | 118° |
| 2026-04-26 22:22 | 25.72986 | -80.10037 | 7931 ft | 279 kts | 109° |
| 2026-04-26 22:22 | 25.72325 | -80.08000 | 8761 ft | 283 kts | 110° |
| 2026-04-26 22:22 | 25.71650 | -80.05954 | 9566 ft | 286 kts | 110° |
| 2026-04-26 22:23 | 25.70962 | -80.03873 | 10282 ft | 293 kts | 110° |
| 2026-04-26 22:23 | 25.70239 | -80.01689 | 10538 ft | 316 kts | 110° |
| 2026-04-26 22:23 | 25.69465 | -79.99355 | 11109 ft | 326 kts | 110° |
| 2026-04-26 22:23 | 25.68684 | -79.96999 | 11866 ft | 330 kts | 110° |
| 2026-04-26 22:24 | 25.67881 | -79.94579 | 12619 ft | 334 kts | 110° |
| 2026-04-26 22:24 | 25.67089 | -79.92193 | 13338 ft | 337 kts | 110° |
| 2026-04-26 22:24 | 25.66274 | -79.89739 | 14053 ft | 341 kts | 110° |
| 2026-04-26 22:24 | 25.65453 | -79.87270 | 14749 ft | 344 kts | 110° |
| 2026-04-26 22:25 | 25.64620 | -79.84764 | 15432 ft | 348 kts | 110° |
| 2026-04-26 22:25 | 25.63783 | -79.82252 | 15955 ft | 355 kts | 110° |
| 2026-04-26 22:25 | 25.62929 | -79.79689 | 15993 ft | 353 kts | 110° |
| 2026-04-26 22:25 | 25.62083 | -79.77152 | 15999 ft | 351 kts | 110° |
| 2026-04-26 22:26 | 25.61235 | -79.74609 | 16014 ft | 356 kts | 110° |
| 2026-04-26 22:26 | 25.60375 | -79.72033 | 16680 ft | 358 kts | 110° |
| 2026-04-26 22:26 | 25.59485 | -79.69448 | 17402 ft | 359 kts | 113° |
| 2026-04-26 22:26 | 25.58438 | -79.66946 | 18034 ft | 362 kts | 116° |
| 2026-04-26 22:27 | 25.57318 | -79.64416 | 18647 ft | 365 kts | 116° |
| 2026-04-26 22:27 | 25.56200 | -79.61911 | 19233 ft | 369 kts | 116° |
| 2026-04-26 22:27 | 25.55057 | -79.59348 | 19814 ft | 372 kts | 116° |
| 2026-04-26 22:27 | 25.53913 | -79.56781 | 20378 ft | 375 kts | 116° |
| 2026-04-26 22:28 | 25.52757 | -79.54187 | 20931 ft | 378 kts | 116° |
| 2026-04-26 22:28 | 25.51603 | -79.51597 | 21465 ft | 381 kts | 116° |
| 2026-04-26 22:28 | 25.50426 | -79.48954 | 21992 ft | 384 kts | 116° |
| 2026-04-26 22:28 | 25.49250 | -79.46314 | 22502 ft | 387 kts | 116° |
| 2026-04-26 22:29 | 25.48055 | -79.43635 | 23004 ft | 390 kts | 116° |
| 2026-04-26 22:29 | 25.46849 | -79.40929 | 23495 ft | 393 kts | 116° |
| 2026-04-26 22:29 | 25.45632 | -79.38202 | 23976 ft | 396 kts | 116° |
| 2026-04-26 22:29 | 25.44423 | -79.35492 | 24439 ft | 399 kts | 116° |
| 2026-04-26 22:30 | 25.43179 | -79.32707 | 24901 ft | 402 kts | 116° |
| 2026-04-26 22:30 | 25.41945 | -79.29943 | 25345 ft | 405 kts | 116° |
| 2026-04-26 22:30 | 25.40694 | -79.27143 | 25783 ft | 408 kts | 116° |
| 2026-04-26 22:30 | 25.39447 | -79.24356 | 26207 ft | 410 kts | 116° |
| 2026-04-26 22:31 | 25.38178 | -79.21519 | 26626 ft | 413 kts | 116° |
| 2026-04-26 22:31 | 25.36898 | -79.18661 | 27036 ft | 416 kts | 116° |
| 2026-04-26 22:31 | 25.35621 | -79.15810 | 27434 ft | 418 kts | 116° |
| 2026-04-26 22:31 | 25.34319 | -79.12904 | 27829 ft | 421 kts | 116° |
| 2026-04-26 22:32 | 25.33013 | -79.09992 | 28214 ft | 423 kts | 116° |
| 2026-04-26 22:32 | 25.31721 | -79.07113 | 28585 ft | 426 kts | 116° |
| 2026-04-26 22:32 | 25.30403 | -79.04178 | 28953 ft | 428 kts | 116° |
| 2026-04-26 22:32 | 25.29076 | -79.01224 | 29314 ft | 431 kts | 116° |
| 2026-04-26 22:33 | 25.27736 | -78.98245 | 29668 ft | 433 kts | 116° |
| 2026-04-26 22:33 | 25.25036 | -78.92245 | 30356 ft | 438 kts | 116° |
| 2026-04-26 22:33 | 25.23683 | -78.89243 | 30713 ft | 439 kts | 116° |
| 2026-04-26 22:34 | 25.22333 | -78.86247 | 31125 ft | 439 kts | 116° |
| 2026-04-26 22:34 | 25.20961 | -78.83205 | 31558 ft | 439 kts | 116° |
| 2026-04-26 22:34 | 25.19603 | -78.80198 | 31983 ft | 438 kts | 116° |
| 2026-04-26 22:34 | 25.18258 | -78.77219 | 32396 ft | 437 kts | 116° |
| 2026-04-26 22:35 | 25.16910 | -78.74237 | 32799 ft | 436 kts | 116° |
| 2026-04-26 22:35 | 25.15557 | -78.71246 | 33192 ft | 435 kts | 116° |
| 2026-04-26 22:35 | 25.14210 | -78.68269 | 33573 ft | 435 kts | 116° |
| 2026-04-26 22:35 | 25.12855 | -78.65277 | 33946 ft | 434 kts | 116° |
| 2026-04-26 22:36 | 25.11516 | -78.62321 | 34304 ft | 433 kts | 116° |
| 2026-04-26 22:36 | 25.10168 | -78.59348 | 34655 ft | 432 kts | 117° |
| 2026-04-26 22:36 | 25.08785 | -78.56439 | 34961 ft | 433 kts | 118° |
| 2026-04-26 22:37 | 25.05866 | -78.50531 | 35002 ft | 447 kts | 118° |
| 2026-04-26 22:37 | 25.02891 | -78.44523 | 34999 ft | 446 kts | 118° |
| 2026-04-26 22:38 | 24.99928 | -78.38538 | 35000 ft | 445 kts | 118° |
| 2026-04-26 22:38 | 24.96953 | -78.32530 | 35000 ft | 446 kts | 119° |
| 2026-04-26 22:39 | 24.94008 | -78.26588 | 34999 ft | 445 kts | 118° |
| 2026-04-26 22:39 | 24.91032 | -78.20589 | 35000 ft | 445 kts | 118° |
| 2026-04-26 22:40 | 24.88074 | -78.14634 | 35000 ft | 445 kts | 118° |
| 2026-04-26 22:40 | 24.85098 | -78.08647 | 35000 ft | 445 kts | 118° |
| 2026-04-26 22:41 | 24.82131 | -78.02687 | 35000 ft | 445 kts | 118° |
| 2026-04-26 22:41 | 24.79166 | -77.96738 | 35000 ft | 445 kts | 118° |
| 2026-04-26 22:42 | 24.76184 | -77.90762 | 35000 ft | 445 kts | 118° |
| 2026-04-26 22:42 | 24.73206 | -77.84803 | 35000 ft | 445 kts | 118° |
| 2026-04-26 22:43 | 24.70183 | -77.78872 | 35000 ft | 445 kts | 121° |
| 2026-04-26 22:43 | 24.66664 | -77.73290 | 35001 ft | 445 kts | 128° |
| 2026-04-26 22:44 | 24.62578 | -77.68211 | 35001 ft | 445 kts | 135° |
| 2026-04-26 22:44 | 24.58055 | -77.63574 | 34999 ft | 445 kts | 137° |
| 2026-04-26 22:45 | 24.53534 | -77.58909 | 34999 ft | 445 kts | 136° |
| 2026-04-26 22:45 | 24.49043 | -77.54250 | 35000 ft | 445 kts | 136° |
| 2026-04-26 22:46 | 24.44560 | -77.49607 | 35000 ft | 445 kts | 136° |
| 2026-04-26 22:46 | 24.40072 | -77.44966 | 35000 ft | 445 kts | 136° |
| 2026-04-26 22:47 | 24.35552 | -77.40299 | 35000 ft | 445 kts | 136° |
| 2026-04-26 22:47 | 24.31050 | -77.35652 | 35000 ft | 445 kts | 136° |
| 2026-04-26 22:48 | 24.26550 | -77.31012 | 35000 ft | 445 kts | 137° |
| 2026-04-26 22:48 | 24.22051 | -77.26377 | 34999 ft | 445 kts | 137° |
| 2026-04-26 22:49 | 24.17556 | -77.21748 | 35000 ft | 445 kts | 137° |
| 2026-04-26 22:49 | 24.13061 | -77.17124 | 35000 ft | 445 kts | 137° |
| 2026-04-26 22:50 | 24.08549 | -77.12486 | 35000 ft | 445 kts | 137° |
| 2026-04-26 22:50 | 24.04048 | -77.07863 | 35000 ft | 445 kts | 137° |
| 2026-04-26 22:51 | 23.99521 | -77.03217 | 35000 ft | 445 kts | 137° |
| 2026-04-26 22:51 | 23.95013 | -76.98593 | 35000 ft | 445 kts | 137° |
| 2026-04-26 22:52 | 23.90493 | -76.93961 | 35000 ft | 445 kts | 137° |
| 2026-04-26 22:52 | 23.85988 | -76.89348 | 35000 ft | 445 kts | 137° |
| 2026-04-26 22:53 | 23.81462 | -76.84718 | 35000 ft | 445 kts | 137° |
| 2026-04-26 22:53 | 23.76971 | -76.80125 | 35000 ft | 445 kts | 137° |
| 2026-04-26 22:54 | 23.72435 | -76.75492 | 35000 ft | 445 kts | 137° |
| 2026-04-26 22:54 | 23.67932 | -76.70895 | 34999 ft | 445 kts | 137° |
| 2026-04-26 22:55 | 23.63418 | -76.66290 | 35000 ft | 445 kts | 137° |
| 2026-04-26 22:55 | 23.58910 | -76.61696 | 35000 ft | 445 kts | 137° |
| 2026-04-26 22:56 | 23.54406 | -76.57109 | 35000 ft | 445 kts | 137° |
| 2026-04-26 22:56 | 23.49892 | -76.52516 | 35000 ft | 445 kts | 137° |
| 2026-04-26 22:57 | 23.45355 | -76.47903 | 35000 ft | 445 kts | 137° |
| 2026-04-26 22:57 | 23.40841 | -76.43317 | 35000 ft | 445 kts | 137° |
| 2026-04-26 22:58 | 23.36320 | -76.38728 | 35000 ft | 445 kts | 137° |
| 2026-04-26 22:58 | 23.31790 | -76.34134 | 35000 ft | 445 kts | 137° |
| 2026-04-26 22:59 | 23.27273 | -76.29555 | 35000 ft | 445 kts | 137° |
| 2026-04-26 22:59 | 23.22777 | -76.25002 | 35000 ft | 445 kts | 137° |
| 2026-04-26 23:00 | 23.18222 | -76.20394 | 35000 ft | 445 kts | 137° |
| 2026-04-26 23:00 | 23.13719 | -76.15841 | 35000 ft | 445 kts | 137° |
| 2026-04-26 23:01 | 23.09200 | -76.11276 | 35000 ft | 445 kts | 137° |
| 2026-04-26 23:01 | 23.04662 | -76.06696 | 35000 ft | 445 kts | 137° |
| 2026-04-26 23:02 | 23.00132 | -76.02127 | 35000 ft | 445 kts | 137° |
| 2026-04-26 23:02 | 22.95619 | -75.97579 | 35000 ft | 445 kts | 137° |
| 2026-04-26 23:03 | 22.91089 | -75.93019 | 35000 ft | 445 kts | 137° |
| 2026-04-26 23:03 | 22.86533 | -75.88435 | 35000 ft | 445 kts | 137° |
| 2026-04-26 23:04 | 22.82032 | -75.83912 | 35000 ft | 445 kts | 137° |
| 2026-04-26 23:04 | 22.77493 | -75.79353 | 35000 ft | 445 kts | 137° |
| 2026-04-26 23:05 | 22.72959 | -75.74802 | 35000 ft | 445 kts | 137° |
| 2026-04-26 23:05 | 22.68407 | -75.70240 | 35000 ft | 445 kts | 137° |
| 2026-04-26 23:06 | 22.63883 | -75.65708 | 35000 ft | 445 kts | 137° |
| 2026-04-26 23:06 | 22.59341 | -75.61162 | 35000 ft | 445 kts | 137° |
| 2026-04-26 23:07 | 22.54798 | -75.56618 | 35000 ft | 445 kts | 137° |
| 2026-04-26 23:07 | 22.50278 | -75.52102 | 35000 ft | 445 kts | 137° |
| 2026-04-26 23:08 | 22.45719 | -75.47551 | 35000 ft | 445 kts | 137° |
| 2026-04-26 23:08 | 22.41197 | -75.43040 | 35000 ft | 445 kts | 137° |
| 2026-04-26 23:09 | 22.36627 | -75.38487 | 35000 ft | 445 kts | 137° |
| 2026-04-26 23:09 | 22.32080 | -75.33959 | 35000 ft | 445 kts | 137° |
| 2026-04-26 23:10 | 22.27535 | -75.29438 | 34999 ft | 445 kts | 137° |
| 2026-04-26 23:10 | 22.23001 | -75.24931 | 35000 ft | 445 kts | 137° |
| 2026-04-26 23:11 | 22.18458 | -75.20421 | 35000 ft | 445 kts | 137° |
| 2026-04-26 23:11 | 22.13910 | -75.15908 | 35000 ft | 445 kts | 137° |
| 2026-04-26 23:12 | 22.09360 | -75.11398 | 35000 ft | 445 kts | 137° |
| 2026-04-26 23:12 | 22.04790 | -75.06873 | 35000 ft | 445 kts | 137° |
| 2026-04-26 23:13 | 22.00232 | -75.02363 | 35000 ft | 445 kts | 137° |
| 2026-04-26 23:13 | 21.95686 | -74.97870 | 35000 ft | 445 kts | 137° |
| 2026-04-26 23:14 | 21.91130 | -74.93371 | 35000 ft | 445 kts | 137° |
| 2026-04-26 23:14 | 21.86572 | -74.88872 | 35000 ft | 445 kts | 137° |
| 2026-04-26 23:15 | 21.82007 | -74.84373 | 35000 ft | 445 kts | 137° |
| 2026-04-26 23:15 | 21.77453 | -74.79886 | 35000 ft | 445 kts | 137° |
| 2026-04-26 23:16 | 21.72900 | -74.75406 | 35000 ft | 445 kts | 137° |
| 2026-04-26 23:16 | 21.68323 | -74.70905 | 35000 ft | 445 kts | 137° |
| 2026-04-26 23:17 | 21.63759 | -74.66421 | 35000 ft | 445 kts | 137° |
| 2026-04-26 23:17 | 21.59200 | -74.61945 | 35000 ft | 445 kts | 137° |
| 2026-04-26 23:18 | 21.54649 | -74.57481 | 35000 ft | 445 kts | 137° |
| 2026-04-26 23:18 | 21.50077 | -74.53000 | 35000 ft | 445 kts | 137° |
| 2026-04-26 23:19 | 21.45505 | -74.48524 | 35000 ft | 445 kts | 137° |
| 2026-04-26 23:19 | 21.40958 | -74.44074 | 35000 ft | 445 kts | 137° |
| 2026-04-26 23:20 | 21.36362 | -74.39583 | 35000 ft | 445 kts | 137° |
| 2026-04-26 23:20 | 21.31804 | -74.35131 | 35000 ft | 445 kts | 137° |
| 2026-04-26 23:21 | 21.27234 | -74.30671 | 35000 ft | 445 kts | 138° |
| 2026-04-26 23:21 | 21.22664 | -74.26215 | 35000 ft | 445 kts | 138° |
| 2026-04-26 23:22 | 21.18074 | -74.21744 | 35000 ft | 445 kts | 138° |
| 2026-04-26 23:22 | 21.13508 | -74.17300 | 35000 ft | 445 kts | 138° |
| 2026-04-26 23:23 | 21.08912 | -74.12831 | 35000 ft | 445 kts | 138° |
| 2026-04-26 23:23 | 21.04355 | -74.08404 | 35000 ft | 445 kts | 138° |
| 2026-04-26 23:24 | 20.99787 | -74.03970 | 35000 ft | 445 kts | 138° |
| 2026-04-26 23:24 | 20.95189 | -73.99511 | 35000 ft | 445 kts | 138° |
| 2026-04-26 23:25 | 20.90603 | -73.95068 | 35000 ft | 445 kts | 138° |
| 2026-04-26 23:25 | 20.86015 | -73.90627 | 35000 ft | 445 kts | 138° |
| 2026-04-26 23:26 | 20.81430 | -73.86192 | 34999 ft | 445 kts | 138° |
| 2026-04-26 23:26 | 20.76857 | -73.81773 | 35000 ft | 445 kts | 138° |
| 2026-04-26 23:27 | 20.72279 | -73.77355 | 35000 ft | 445 kts | 138° |
| 2026-04-26 23:27 | 20.67701 | -73.72939 | 34999 ft | 445 kts | 138° |
| 2026-04-26 23:28 | 20.63117 | -73.68523 | 35000 ft | 445 kts | 138° |
| 2026-04-26 23:28 | 20.58522 | -73.64100 | 35000 ft | 445 kts | 138° |
| 2026-04-26 23:29 | 20.53932 | -73.59686 | 35000 ft | 445 kts | 138° |
| 2026-04-26 23:29 | 20.49330 | -73.55264 | 35000 ft | 445 kts | 138° |
| 2026-04-26 23:30 | 20.44742 | -73.50860 | 35000 ft | 445 kts | 138° |
| 2026-04-26 23:30 | 20.40163 | -73.46469 | 35000 ft | 445 kts | 138° |
| 2026-04-26 23:31 | 20.35543 | -73.42042 | 35000 ft | 445 kts | 138° |
| 2026-04-26 23:31 | 20.30982 | -73.37676 | 34999 ft | 445 kts | 138° |
| 2026-04-26 23:32 | 20.26391 | -73.33286 | 35000 ft | 445 kts | 138° |
| 2026-04-26 23:32 | 20.21785 | -73.28886 | 35000 ft | 445 kts | 138° |
| 2026-04-26 23:33 | 20.17164 | -73.24564 | 35000 ft | 445 kts | 141° |
| 2026-04-26 23:33 | 20.12230 | -73.20637 | 35000 ft | 445 kts | 146° |
| 2026-04-26 23:34 | 20.06891 | -73.17267 | 35000 ft | 445 kts | 152° |
| 2026-04-26 23:34 | 20.01492 | -73.14147 | 34999 ft | 445 kts | 151° |
| 2026-04-26 23:35 | 19.96075 | -73.10969 | 35000 ft | 445 kts | 151° |
| 2026-04-26 23:35 | 19.90651 | -73.07783 | 35000 ft | 445 kts | 151° |
| 2026-04-26 23:36 | 19.85377 | -73.04688 | 35000 ft | 445 kts | 151° |
| 2026-04-26 23:36 | 19.80127 | -73.01607 | 35000 ft | 445 kts | 151° |
| 2026-04-26 23:37 | 19.74927 | -72.98556 | 35000 ft | 445 kts | 151° |
| 2026-04-26 23:37 | 19.69576 | -72.95420 | 35000 ft | 445 kts | 151° |
| 2026-04-26 23:38 | 19.64160 | -72.92248 | 35000 ft | 445 kts | 151° |
| 2026-04-26 23:38 | 19.58790 | -72.89103 | 35000 ft | 445 kts | 151° |
| 2026-04-26 23:39 | 19.53367 | -72.85930 | 35000 ft | 445 kts | 151° |
| 2026-04-26 23:39 | 19.48005 | -72.82795 | 35000 ft | 445 kts | 151° |
| 2026-04-26 23:40 | 19.42566 | -72.79617 | 35000 ft | 445 kts | 151° |
| 2026-04-26 23:40 | 19.37163 | -72.76461 | 35000 ft | 445 kts | 151° |
| 2026-04-26 23:41 | 19.31766 | -72.73312 | 35000 ft | 445 kts | 151° |
| 2026-04-26 23:41 | 19.26375 | -72.70168 | 35000 ft | 445 kts | 151° |
| 2026-04-26 23:42 | 19.20986 | -72.67028 | 35000 ft | 445 kts | 151° |
| 2026-04-26 23:42 | 19.12871 | -72.62303 | 35000 ft | 445 kts | 151° |
| 2026-04-26 23:43 | 19.07467 | -72.59160 | 35000 ft | 445 kts | 151° |
| 2026-04-26 23:43 | 19.02074 | -72.56025 | 35000 ft | 445 kts | 151° |
| 2026-04-26 23:44 | 18.96627 | -72.52861 | 35000 ft | 445 kts | 151° |
| 2026-04-26 23:44 | 18.91225 | -72.49725 | 35000 ft | 445 kts | 151° |
| 2026-04-26 23:45 | 18.86750 | -72.47129 | 35000 ft | 445 kts | 151° |
| 2026-04-26 23:45 | 18.80455 | -72.43479 | 35000 ft | 445 kts | 151° |
| 2026-04-26 23:46 | 18.75036 | -72.40340 | 35000 ft | 445 kts | 151° |
| 2026-04-26 23:46 | 18.69620 | -72.37206 | 35000 ft | 445 kts | 151° |
| 2026-04-26 23:47 | 18.64223 | -72.34084 | 35000 ft | 445 kts | 151° |
| 2026-04-26 23:47 | 18.58934 | -72.31027 | 35000 ft | 445 kts | 151° |
| 2026-04-26 23:48 | 18.53657 | -72.27979 | 35000 ft | 445 kts | 151° |
| 2026-04-26 23:48 | 18.48280 | -72.24876 | 35000 ft | 445 kts | 151° |
| 2026-04-26 23:49 | 18.42901 | -72.21774 | 35000 ft | 445 kts | 151° |
| 2026-04-26 23:49 | 18.37468 | -72.18642 | 35000 ft | 445 kts | 151° |
| 2026-04-26 23:50 | 18.32051 | -72.15522 | 35000 ft | 445 kts | 151° |
| 2026-04-26 23:50 | 18.26635 | -72.12405 | 35000 ft | 445 kts | 151° |
| 2026-04-26 23:51 | 18.21272 | -72.09322 | 35000 ft | 445 kts | 151° |
| 2026-04-26 23:51 | 18.15833 | -72.06195 | 35000 ft | 445 kts | 151° |
| 2026-04-26 23:52 | 18.10427 | -72.03091 | 35000 ft | 445 kts | 151° |
| 2026-04-26 23:52 | 18.04993 | -71.99972 | 35000 ft | 445 kts | 151° |
| 2026-04-26 23:53 | 17.99574 | -71.96865 | 35000 ft | 445 kts | 151° |
| 2026-04-26 23:53 | 17.94134 | -71.93748 | 35000 ft | 445 kts | 151° |
| 2026-04-26 23:54 | 17.88731 | -71.90654 | 34999 ft | 445 kts | 151° |
| 2026-04-26 23:54 | 17.83270 | -71.87529 | 35000 ft | 445 kts | 151° |
| 2026-04-26 23:55 | 17.77842 | -71.84425 | 35000 ft | 445 kts | 151° |
| 2026-04-26 23:55 | 17.72438 | -71.81337 | 35000 ft | 445 kts | 151° |
| 2026-04-26 23:56 | 17.66991 | -71.78226 | 35000 ft | 445 kts | 151° |
| 2026-04-26 23:56 | 17.61572 | -71.75134 | 35000 ft | 445 kts | 151° |
| 2026-04-26 23:57 | 17.56111 | -71.72098 | 35002 ft | 445 kts | 156° |
| 2026-04-26 23:57 | 17.50337 | -71.69821 | 35000 ft | 446 kts | 161° |
| 2026-04-26 23:58 | 17.44506 | -71.67720 | 34999 ft | 445 kts | 161° |
| 2026-04-26 23:58 | 17.38632 | -71.65611 | 35000 ft | 445 kts | 161° |
| 2026-04-26 23:59 | 17.32801 | -71.63520 | 35000 ft | 445 kts | 161° |
| 2026-04-26 23:59 | 17.26943 | -71.61420 | 35000 ft | 445 kts | 161° |
| 2026-04-27 00:00 | 17.21100 | -71.59328 | 35000 ft | 445 kts | 161° |
| 2026-04-27 00:00 | 17.15282 | -71.57248 | 35000 ft | 445 kts | 161° |
| 2026-04-27 00:01 | 17.09430 | -71.55156 | 35000 ft | 445 kts | 161° |
| 2026-04-27 00:01 | 17.03569 | -71.53062 | 35000 ft | 445 kts | 161° |
| 2026-04-27 00:02 | 16.97719 | -71.50974 | 35000 ft | 445 kts | 161° |
| 2026-04-27 00:02 | 16.91890 | -71.48895 | 35000 ft | 445 kts | 161° |
| 2026-04-27 00:03 | 16.86050 | -71.46813 | 35000 ft | 445 kts | 161° |
| 2026-04-27 00:03 | 16.80183 | -71.44724 | 35000 ft | 445 kts | 161° |
| 2026-04-27 00:04 | 16.74326 | -71.42638 | 35000 ft | 445 kts | 161° |
| 2026-04-27 00:04 | 16.68480 | -71.40559 | 35000 ft | 445 kts | 161° |
| 2026-04-27 00:05 | 16.62614 | -71.38474 | 35000 ft | 445 kts | 161° |
| 2026-04-27 00:05 | 16.56770 | -71.36398 | 35000 ft | 445 kts | 161° |
| 2026-04-27 00:06 | 16.50917 | -71.34320 | 35000 ft | 445 kts | 161° |
| 2026-04-27 00:06 | 16.45071 | -71.32246 | 35000 ft | 445 kts | 161° |
| 2026-04-27 00:07 | 16.39238 | -71.30178 | 35000 ft | 445 kts | 161° |
| 2026-04-27 00:07 | 16.33359 | -71.28095 | 35000 ft | 445 kts | 161° |
| 2026-04-27 00:08 | 16.27531 | -71.26032 | 35000 ft | 445 kts | 161° |
| 2026-04-27 00:08 | 16.21676 | -71.23959 | 34999 ft | 445 kts | 161° |
| 2026-04-27 00:09 | 16.15816 | -71.21887 | 35000 ft | 445 kts | 161° |
| 2026-04-27 00:09 | 16.09973 | -71.19823 | 35000 ft | 445 kts | 161° |
| 2026-04-27 00:10 | 16.04094 | -71.17747 | 35000 ft | 445 kts | 161° |
| 2026-04-27 00:10 | 15.98240 | -71.15760 | 35001 ft | 445 kts | 164° |
| 2026-04-27 00:11 | 15.92267 | -71.13996 | 35000 ft | 445 kts | 164° |
| 2026-04-27 00:11 | 15.86330 | -71.12258 | 35000 ft | 445 kts | 164° |
| 2026-04-27 00:12 | 15.80380 | -71.10517 | 35000 ft | 445 kts | 164° |
| 2026-04-27 00:12 | 15.74425 | -71.08775 | 35000 ft | 445 kts | 164° |
| 2026-04-27 00:13 | 15.68477 | -71.07037 | 35000 ft | 445 kts | 164° |
| 2026-04-27 00:13 | 15.62563 | -71.05310 | 35000 ft | 445 kts | 164° |
| 2026-04-27 00:14 | 15.56594 | -71.03567 | 35000 ft | 445 kts | 164° |
| 2026-04-27 00:14 | 15.50668 | -71.01839 | 34999 ft | 445 kts | 164° |
| 2026-04-27 00:15 | 15.44692 | -71.00096 | 35000 ft | 445 kts | 164° |
| 2026-04-27 00:15 | 15.38753 | -70.98365 | 35000 ft | 445 kts | 164° |
| 2026-04-27 00:16 | 15.32808 | -70.96633 | 35000 ft | 445 kts | 164° |
| 2026-04-27 00:16 | 15.26856 | -70.94900 | 35000 ft | 445 kts | 164° |
| 2026-04-27 00:17 | 15.20890 | -70.93164 | 35000 ft | 445 kts | 164° |
| 2026-04-27 00:17 | 15.14971 | -70.91443 | 35000 ft | 445 kts | 164° |
| 2026-04-27 00:18 | 15.09022 | -70.89713 | 35000 ft | 445 kts | 164° |
| 2026-04-27 00:18 | 15.03043 | -70.87976 | 35000 ft | 445 kts | 164° |
| 2026-04-27 00:19 | 14.97092 | -70.86248 | 35000 ft | 445 kts | 164° |
| 2026-04-27 00:19 | 14.91178 | -70.84532 | 35000 ft | 445 kts | 164° |
| 2026-04-27 00:20 | 14.85215 | -70.82802 | 35000 ft | 445 kts | 164° |
| 2026-04-27 00:20 | 14.79276 | -70.81081 | 35000 ft | 445 kts | 164° |
| 2026-04-27 00:21 | 14.73294 | -70.79347 | 35000 ft | 445 kts | 164° |
| 2026-04-27 00:21 | 14.67367 | -70.77631 | 35000 ft | 445 kts | 164° |
| 2026-04-27 00:22 | 14.61422 | -70.75909 | 35000 ft | 445 kts | 164° |
| 2026-04-27 00:22 | 14.55472 | -70.74188 | 35000 ft | 445 kts | 164° |
| 2026-04-27 00:23 | 14.49508 | -70.72464 | 35000 ft | 446 kts | 164° |
| 2026-04-27 00:23 | 14.43538 | -70.70739 | 34999 ft | 447 kts | 164° |
| 2026-04-27 00:24 | 14.37564 | -70.69013 | 34999 ft | 447 kts | 164° |
| 2026-04-27 00:24 | 14.31599 | -70.67292 | 35000 ft | 447 kts | 164° |
| 2026-04-27 00:25 | 14.25604 | -70.65562 | 34386 ft | 453 kts | 164° |
| 2026-04-27 00:25 | 14.22599 | -70.64696 | 33461 ft | 456 kts | 164° |
| 2026-04-27 00:25 | 14.19569 | -70.63823 | 32585 ft | 457 kts | 164° |
| 2026-04-27 00:26 | 14.16514 | -70.62943 | 31674 ft | 458 kts | 164° |
| 2026-04-27 00:26 | 14.13461 | -70.62064 | 30777 ft | 458 kts | 164° |
| 2026-04-27 00:26 | 14.10390 | -70.61180 | 29832 ft | 459 kts | 164° |
| 2026-04-27 00:26 | 14.07377 | -70.60313 | 29155 ft | 453 kts | 164° |
| 2026-04-27 00:27 | 14.04381 | -70.59451 | 28497 ft | 447 kts | 164° |
| 2026-04-27 00:27 | 14.01389 | -70.58591 | 27815 ft | 442 kts | 164° |
| 2026-04-27 00:27 | 13.98487 | -70.57756 | 27176 ft | 436 kts | 164° |
| 2026-04-27 00:27 | 13.95579 | -70.56921 | 26518 ft | 431 kts | 164° |
| 2026-04-27 00:28 | 13.92714 | -70.56097 | 25855 ft | 426 kts | 164° |
| 2026-04-27 00:28 | 13.89899 | -70.55289 | 25205 ft | 421 kts | 164° |
| 2026-04-27 00:28 | 13.87120 | -70.54490 | 24574 ft | 416 kts | 164° |
| 2026-04-27 00:28 | 13.84358 | -70.53697 | 23962 ft | 411 kts | 164° |
| 2026-04-27 00:29 | 13.81630 | -70.52914 | 23336 ft | 406 kts | 164° |
| 2026-04-27 00:29 | 13.78932 | -70.52139 | 22712 ft | 402 kts | 164° |
| 2026-04-27 00:29 | 13.76258 | -70.51372 | 22094 ft | 397 kts | 164° |
| 2026-04-27 00:29 | 13.73645 | -70.50622 | 21491 ft | 393 kts | 164° |
| 2026-04-27 00:30 | 13.71027 | -70.49871 | 20887 ft | 389 kts | 164° |
| 2026-04-27 00:30 | 13.68433 | -70.49127 | 20310 ft | 384 kts | 164° |
| 2026-04-27 00:30 | 13.65914 | -70.48405 | 19747 ft | 379 kts | 164° |
| 2026-04-27 00:30 | 13.63402 | -70.47685 | 19165 ft | 375 kts | 164° |
| 2026-04-27 00:31 | 13.60903 | -70.46969 | 18587 ft | 371 kts | 164° |
| 2026-04-27 00:31 | 13.58449 | -70.46265 | 18020 ft | 368 kts | 164° |
| 2026-04-27 00:31 | 13.55981 | -70.45558 | 17467 ft | 363 kts | 164° |
| 2026-04-27 00:31 | 13.53601 | -70.44876 | 16938 ft | 359 kts | 164° |
| 2026-04-27 00:32 | 13.51216 | -70.44193 | 16389 ft | 356 kts | 164° |
| 2026-04-27 00:32 | 13.48836 | -70.43512 | 15840 ft | 352 kts | 164° |
| 2026-04-27 00:32 | 13.46481 | -70.42838 | 15318 ft | 349 kts | 164° |
| 2026-04-27 00:32 | 13.44192 | -70.42182 | 14809 ft | 345 kts | 164° |
| 2026-04-27 00:33 | 13.41852 | -70.41513 | 14303 ft | 356 kts | 164° |
| 2026-04-27 00:33 | 13.39461 | -70.40829 | 13762 ft | 358 kts | 164° |
| 2026-04-27 00:33 | 13.37098 | -70.40153 | 13231 ft | 352 kts | 164° |
| 2026-04-27 00:33 | 13.34755 | -70.39482 | 12708 ft | 347 kts | 164° |
| 2026-04-27 00:34 | 13.32445 | -70.38822 | 12194 ft | 342 kts | 164° |
| 2026-04-27 00:34 | 13.30177 | -70.38174 | 11689 ft | 337 kts | 164° |
| 2026-04-27 00:34 | 13.27952 | -70.37537 | 11194 ft | 333 kts | 164° |
| 2026-04-27 00:34 | 13.25743 | -70.36906 | 10764 ft | 326 kts | 164° |
| 2026-04-27 00:35 | 13.23588 | -70.36290 | 10668 ft | 325 kts | 164° |
| 2026-04-27 00:35 | 13.21355 | -70.35652 | 10530 ft | 340 kts | 164° |
| 2026-04-27 00:35 | 13.19118 | -70.35013 | 10349 ft | 324 kts | 164° |
| 2026-04-27 00:35 | 13.16984 | -70.34403 | 10194 ft | 325 kts | 165° |
| 2026-04-27 00:36 | 13.14735 | -70.33761 | 10029 ft | 336 kts | 165° |
| 2026-04-27 00:36 | 13.12549 | -70.33137 | 9994 ft | 317 kts | 165° |
| 2026-04-27 00:36 | 13.10486 | -70.32550 | 9992 ft | 298 kts | 165° |
| 2026-04-27 00:36 | 13.08542 | -70.31997 | 9998 ft | 289 kts | 165° |
| 2026-04-27 00:37 | 13.06604 | -70.31445 | 10000 ft | 289 kts | 165° |
| 2026-04-27 00:37 | 13.04706 | -70.30905 | 9921 ft | 280 kts | 165° |
| 2026-04-27 00:37 | 13.02858 | -70.30379 | 9649 ft | 276 kts | 165° |
| 2026-04-27 00:37 | 13.01004 | -70.29852 | 9360 ft | 272 kts | 165° |
| 2026-04-27 00:38 | 12.99220 | -70.29345 | 9079 ft | 269 kts | 165° |
| 2026-04-27 00:38 | 12.97413 | -70.28831 | 8794 ft | 266 kts | 165° |
| 2026-04-27 00:38 | 12.95654 | -70.28331 | 8517 ft | 263 kts | 165° |
| 2026-04-27 00:38 | 12.93903 | -70.27834 | 8241 ft | 260 kts | 165° |
| 2026-04-27 00:39 | 12.92164 | -70.27339 | 7966 ft | 258 kts | 165° |
| 2026-04-27 00:39 | 12.90448 | -70.26852 | 7708 ft | 255 kts | 165° |
| 2026-04-27 00:39 | 12.88759 | -70.26372 | 7456 ft | 252 kts | 165° |
| 2026-04-27 00:39 | 12.87058 | -70.25888 | 7215 ft | 261 kts | 165° |
| 2026-04-27 00:40 | 12.85299 | -70.25388 | 6943 ft | 262 kts | 165° |
| 2026-04-27 00:40 | 12.83554 | -70.24892 | 6676 ft | 256 kts | 165° |
| 2026-04-27 00:40 | 12.81846 | -70.24408 | 6417 ft | 250 kts | 165° |
| 2026-04-27 00:40 | 12.80205 | -70.23942 | 6171 ft | 247 kts | 165° |
| 2026-04-27 00:41 | 12.78466 | -70.23448 | 5926 ft | 264 kts | 165° |
| 2026-04-27 00:41 | 12.76727 | -70.22954 | 5674 ft | 257 kts | 165° |
| 2026-04-27 00:41 | 12.75034 | -70.22474 | 5433 ft | 250 kts | 165° |
| 2026-04-27 00:41 | 12.73383 | -70.22006 | 5201 ft | 244 kts | 165° |
| 2026-04-27 00:42 | 12.71757 | -70.21544 | 4993 ft | 254 kts | 165° |
| 2026-04-27 00:42 | 12.70009 | -70.21048 | 4739 ft | 257 kts | 165° |
| 2026-04-27 00:42 | 12.68334 | -70.20573 | 4497 ft | 250 kts | 165° |
| 2026-04-27 00:42 | 12.66673 | -70.20101 | 4262 ft | 244 kts | 165° |
| 2026-04-27 00:43 | 12.65026 | -70.19823 | 3986 ft | 243 kts | 179° |
| 2026-04-27 00:43 | 12.63428 | -70.19977 | 4206 ft | 210 kts | 191° |
| 2026-04-27 00:43 | 12.62102 | -70.20264 | 4494 ft | 193 kts | 193° |
| 2026-04-27 00:43 | 12.60811 | -70.20573 | 4311 ft | 189 kts | 193° |
| 2026-04-27 00:44 | 12.59554 | -70.20879 | 4032 ft | 184 kts | 193° |
| 2026-04-27 00:44 | 12.58316 | -70.21046 | 3679 ft | 183 kts | 174° |
| 2026-04-27 00:44 | 12.57075 | -70.20721 | 3247 ft | 184 kts | 159° |
| 2026-04-27 00:44 | 12.55944 | -70.20177 | 2819 ft | 179 kts | 149° |
| 2026-04-27 00:45 | 12.54984 | -70.19406 | 2361 ft | 175 kts | 134° |
| 2026-04-27 00:45 | 12.54295 | -70.18410 | 2011 ft | 164 kts | 114° |
| 2026-04-27 00:45 | 12.53941 | -70.17363 | 1991 ft | 152 kts | 106° |
| 2026-04-27 00:45 | 12.53668 | -70.16320 | 1999 ft | 151 kts | 104° |
| 2026-04-27 00:46 | 12.53414 | -70.15279 | 2000 ft | 151 kts | 104° |
| 2026-04-27 00:46 | 12.53165 | -70.14243 | 2000 ft | 150 kts | 104° |
| 2026-04-27 00:46 | 12.52921 | -70.13215 | 1993 ft | 147 kts | 104° |
| 2026-04-27 00:46 | 12.52673 | -70.12174 | 1879 ft | 149 kts | 104° |
| 2026-04-27 00:47 | 12.52430 | -70.11152 | 1695 ft | 149 kts | 104° |
| 2026-04-27 00:47 | 12.52186 | -70.10126 | 1495 ft | 148 kts | 104° |
| 2026-04-27 00:47 | 12.51942 | -70.09099 | 1294 ft | 148 kts | 104° |
| 2026-04-27 00:47 | 12.51701 | -70.08084 | 1095 ft | 147 kts | 104° |
| 2026-04-27 00:48 | 12.51456 | -70.07056 | 894 ft | 147 kts | 104° |
| 2026-04-27 00:48 | 12.51215 | -70.06042 | 695 ft | 146 kts | 104° |
| 2026-04-27 00:48 | 12.50974 | -70.05033 | 499 ft | 146 kts | 104° |
| 2026-04-27 00:48 | 12.50733 | -70.04023 | 303 ft | 146 kts | 104° |
| 2026-04-27 00:49 | 12.50499 | -70.03022 | 88 ft | 143 kts | 103° |
| 2026-04-27 00:49 | 12.50267 | -70.02074 | 14 ft | 122 kts | 102° |
| 2026-04-27 00:49 | 12.50110 | -70.01394 | 13 ft | 65 kts | 103° |
| 2026-04-27 00:49 | 12.50046 | -70.01113 | 13 ft | 28 kts | 102° |
| 2026-04-27 00:50 | 12.50073 | -70.01011 | 13 ft | 10 kts | 18° |
| 2026-04-27 00:50 | 12.50109 | -70.01000 | 13 ft | 0 kts | 13° |
| 2026-04-27 00:50 | 12.50101 | -70.01002 | 13 ft | 1 kts | 14° |
| 2026-04-27 00:51 | 12.50133 | -70.00995 | 13 ft | 13 kts | 13° |
| 2026-04-27 00:51 | 12.50238 | -70.00957 | 13 ft | 9 kts | 68° |
| 2026-04-27 00:51 | 12.50216 | -70.00881 | 13 ft | 10 kts | 104° |
| 2026-04-27 00:51 | 12.50226 | -70.00837 | 13 ft | 6 kts | 19° |
| 2026-04-27 00:52 | 12.50273 | -70.00826 | 13 ft | 4 kts | 12° |
| 2026-04-27 00:52 | 12.50287 | -70.00822 | 13 ft | 0 kts | 14° |